Time;durP1;ratioP1;P1;durP2;ratioP2;P2;SDS_P1;SDS_P2;PMS_P1;PMS_P2;Temp;Humidity;BMP_temperature;BMP_pressure;BME280_temperature;BME280_humidity;BME280_pressure;Samples;Min_cycle;Max_cycle;Signal;HPM_P1;HPM_P2
2023/10/20 00:00:15;;;;;;;9.95;7.05;;;;;;;;;;685464;28;952;-64
2023/10/20 00:00:36;;;;;;;9.50;6.70;;;;;;;;;;685949;28;2080;-64
2023/10/20 00:00:57;;;;;;;9.85;7.00;;;;;;;;;;687200;28;5365;-64
2023/10/20 00:01:17;;;;;;;9.60;7.00;;;;;;;;;;688204;28;1611;-64
2023/10/20 00:01:38;;;;;;;9.00;6.88;;;;;;;;;;686660;28;2315;-64
2023/10/20 00:01:58;;;;;;;8.80;6.83;;;;;;;;;;687109;28;1480;-63
2023/10/20 00:02:18;;;;;;;9.30;6.90;;;;;;;;;;688213;28;1262;-64
2023/10/20 00:02:39;;;;;;;9.32;7.00;;;;;;;;;;686465;28;1871;-64
2023/10/20 00:02:59;;;;;;;8.53;6.47;;;;;;;;;;687799;28;1354;-64
2023/10/20 00:03:19;;;;;;;9.03;7.23;;;;;;;;;;688036;28;1958;-64
2023/10/20 00:03:39;;;;;;;9.80;7.40;;;;;;;;;;684904;28;4558;-63
2023/10/20 00:04:03;;;;;;;9.30;7.27;;;;;;;;;;687198;28;1004;-65
2023/10/20 00:04:24;;;;;;;9.45;7.30;;;;;;;;;;686838;28;2395;-64
2023/10/20 00:04:44;;;;;;;10.18;7.30;;;;;;;;;;685619;28;979;-63
2023/10/20 00:05:05;;;;;;;9.37;7.13;;;;;;;;;;687767;28;991;-64
2023/10/20 00:05:25;;;;;;;9.25;7.20;;;;;;;;;;686323;28;1826;-64
2023/10/20 00:05:46;;;;;;;10.35;7.18;;;;;;;;;;687147;28;1171;-64
2023/10/20 00:06:06;;;;;;;10.23;7.43;;;;;;;;;;687622;28;899;-64
2023/10/20 00:06:26;;;;;;;10.45;7.65;;;;;;;;;;685915;28;1087;-63
2023/10/20 00:06:47;;;;;;;10.40;7.47;;;;;;;;;;686924;28;4441;-64
2023/10/20 00:07:07;;;;;;;10.37;7.60;;;;;;;;;;687474;28;1012;-64
2023/10/20 00:07:27;;;;;;;9.43;7.35;;;;;;;;;;686518;28;2280;-64
2023/10/20 00:07:47;;;;;;;9.53;7.40;;;;;;;;;;688225;28;868;-64
2023/10/20 00:08:08;;;;;;;9.90;7.23;;;;;;;;;;687676;28;923;-65
2023/10/20 00:08:28;;;;;;;9.38;7.32;;;;;;;;;;686632;28;2381;-65
2023/10/20 00:08:48;;;;;;;10.17;7.47;;;;;;;;;;684493;28;984;-64
2023/10/20 00:09:14;;;;;;;10.53;7.40;;;;;;;;;;684670;28;1103;-65
2023/10/20 00:09:34;;;;;;;9.30;6.97;;;;;;;;;;681462;28;68810;-62
2023/10/20 00:09:55;;;;;;;9.73;7.50;;;;;;;;;;684684;28;4511;-64
2023/10/20 00:10:15;;;;;;;9.35;7.10;;;;;;;;;;684601;28;892;-63
2023/10/20 00:10:36;;;;;;;9.10;6.67;;;;;;;;;;684656;28;1160;-63
2023/10/20 00:11:03;;;;;;;8.75;6.50;;;;;;;;;;687856;28;1504;-64
2023/10/20 00:11:25;;;;;;;8.82;7.07;;;;;;;;;;684039;28;68670;-65
2023/10/20 00:11:45;;;;;;;10.15;7.18;;;;;;;;;;687618;28;905;-64
2023/10/20 00:12:06;;;;;;;10.93;7.43;;;;;;;;;;684866;28;1295;-63
2023/10/20 00:12:26;;;;;;;9.67;7.30;;;;;;;;;;683593;28;1730;-64
2023/10/20 00:12:47;;;;;;;10.02;7.55;;;;;;;;;;684635;28;5271;-64
2023/10/20 00:13:07;;;;;;;9.27;7.37;;;;;;;;;;684543;28;1340;-64
2023/10/20 00:13:27;;;;;;;10.00;7.63;;;;;;;;;;683689;28;1786;-64
2023/10/20 00:13:47;;;;;;;11.13;7.40;;;;;;;;;;685210;28;1031;-64
2023/10/20 00:14:08;;;;;;;10.03;7.30;;;;;;;;;;687683;28;944;-63
2023/10/20 00:14:28;;;;;;;9.77;7.73;;;;;;;;;;685980;28;2332;-64
2023/10/20 00:14:48;;;;;;;9.82;7.60;;;;;;;;;;688357;28;875;-63
2023/10/20 00:15:13;;;;;;;9.17;7.23;;;;;;;;;;687738;28;861;-65
2023/10/20 00:15:34;;;;;;;10.50;7.05;;;;;;;;;;681036;28;46951;-68
2023/10/20 00:15:54;;;;;;;9.77;7.10;;;;;;;;;;684510;28;4498;-64
2023/10/20 00:16:14;;;;;;;10.00;7.15;;;;;;;;;;685249;28;916;-64
2023/10/20 00:16:35;;;;;;;10.47;7.43;;;;;;;;;;682817;28;3751;-64
2023/10/20 00:16:55;;;;;;;10.20;7.77;;;;;;;;;;685124;28;932;-65
2023/10/20 00:17:15;;;;;;;9.02;7.55;;;;;;;;;;684513;28;1531;-67
2023/10/20 00:17:35;;;;;;;9.70;7.23;;;;;;;;;;682960;28;1009;-65
2023/10/20 00:17:56;;;;;;;10.10;7.70;;;;;;;;;;685155;28;1397;-65
2023/10/20 00:18:16;;;;;;;10.50;7.60;;;;;;;;;;687884;28;1015;-64
2023/10/20 00:18:36;;;;;;;9.77;7.40;;;;;;;;;;685161;28;896;-66
2023/10/20 00:19:01;;;;;;;10.23;7.80;;;;;;;;;;686006;28;4639;-66
2023/10/20 00:19:21;;;;;;;10.65;7.75;;;;;;;;;;683654;28;23572;-64
2023/10/20 00:19:41;;;;;;;10.70;7.90;;;;;;;;;;681934;28;1614;-65
2023/10/20 00:20:01;;;;;;;9.63;7.50;;;;;;;;;;684578;28;991;-65
2023/10/20 00:20:22;;;;;;;10.75;7.60;;;;;;;;;;681564;28;964;-66
2023/10/20 00:20:42;;;;;;;10.23;7.70;;;;;;;;;;682379;28;1268;-64
2023/10/20 00:21:03;;;;;;;12.18;7.78;;;;;;;;;;682545;28;1277;-63
2023/10/20 00:21:24;;;;;;;11.70;8.05;;;;;;;;;;683709;28;1862;-65
2023/10/20 00:21:45;;;;;;;9.73;7.27;;;;;;;;;;684600;28;4668;-65
2023/10/20 00:22:06;;;;;;;10.10;7.68;;;;;;;;;;685048;28;1007;-65
2023/10/20 00:22:26;;;;;;;10.55;7.72;;;;;;;;;;683173;28;1813;-65
2023/10/20 00:22:46;;;;;;;9.53;7.43;;;;;;;;;;684838;28;1262;-65
2023/10/20 00:23:06;;;;;;;10.10;7.80;;;;;;;;;;684943;28;1910;-65
2023/10/20 00:23:27;;;;;;;10.27;7.63;;;;;;;;;;684835;28;1034;-65
2023/10/20 00:23:48;;;;;;;10.50;7.90;;;;;;;;;;687966;28;960;-64
2023/10/20 00:24:08;;;;;;;10.13;7.47;;;;;;;;;;686401;28;1127;-64
2023/10/20 00:24:28;;;;;;;9.45;7.47;;;;;;;;;;686650;28;2280;-65
2023/10/20 00:24:48;;;;;;;10.00;7.60;;;;;;;;;;687354;28;4679;-65
2023/10/20 00:25:11;;;;;;;9.47;7.27;;;;;;;;;;684523;28;941;-65
2023/10/20 00:25:31;;;;;;;9.35;7.10;;;;;;;;;;683586;28;2371;-65
2023/10/20 00:25:52;;;;;;;10.35;7.60;;;;;;;;;;685258;28;1286;-65
2023/10/20 00:26:13;;;;;;;9.57;7.30;;;;;;;;;;682094;29;1499;-65
2023/10/20 00:26:34;;;;;;;9.90;7.18;;;;;;;;;;679829;29;1779;-65
2023/10/20 00:26:54;;;;;;;11.05;8.18;;;;;;;;;;680447;29;964;-64
2023/10/20 00:27:14;;;;;;;10.17;7.77;;;;;;;;;;680342;29;951;-64
2023/10/20 00:27:35;;;;;;;10.15;7.75;;;;;;;;;;680390;29;2254;-63
2023/10/20 00:27:55;;;;;;;9.93;7.57;;;;;;;;;;676574;29;4593;-65
2023/10/20 00:28:16;;;;;;;9.55;7.25;;;;;;;;;;675664;29;1320;-63
2023/10/20 00:28:36;;;;;;;9.37;7.40;;;;;;;;;;677986;29;2396;-64
2023/10/20 00:28:56;;;;;;;10.57;7.60;;;;;;;;;;676225;29;1343;-64
2023/10/20 00:29:17;;;;;;;9.90;7.73;;;;;;;;;;679834;29;1541;-65
2023/10/20 00:29:37;;;;;;;9.73;7.57;;;;;;;;;;676924;28;1767;-64
2023/10/20 00:29:57;;;;;;;10.30;7.80;;;;;;;;;;684780;28;909;-66
2023/10/20 00:30:17;;;;;;;10.03;7.90;;;;;;;;;;684638;28;1658;-65
2023/10/20 00:30:41;;;;;;;10.07;7.75;;;;;;;;;;683721;28;2209;-64
2023/10/20 00:31:01;;;;;;;9.98;7.82;;;;;;;;;;683442;28;20875;-65
2023/10/20 00:31:23;;;;;;;9.60;7.82;;;;;;;;;;684928;28;1582;-63
2023/10/20 00:31:43;;;;;;;9.95;7.72;;;;;;;;;;684414;28;1002;-65
2023/10/20 00:32:04;;;;;;;9.38;7.35;;;;;;;;;;684483;28;2180;-65
2023/10/20 00:32:25;;;;;;;11.60;8.17;;;;;;;;;;682487;28;1465;-63
2023/10/20 00:32:45;;;;;;;10.90;7.90;;;;;;;;;;685550;28;806;-64
2023/10/20 00:33:05;;;;;;;10.68;8.00;;;;;;;;;;686033;28;1383;-64
2023/10/20 00:33:26;;;;;;;9.80;7.60;;;;;;;;;;684819;28;1289;-63
2023/10/20 00:33:46;;;;;;;10.17;7.47;;;;;;;;;;685011;28;4583;-63
2023/10/20 00:34:06;;;;;;;10.15;7.55;;;;;;;;;;685006;28;1212;-63
2023/10/20 00:34:27;;;;;;;10.77;7.33;;;;;;;;;;680797;29;1790;-65
2023/10/20 00:34:47;;;;;;;9.77;7.50;;;;;;;;;;682505;29;1381;-64
2023/10/20 00:35:09;;;;;;;9.93;7.47;;;;;;;;;;682064;29;1377;-65
2023/10/20 00:35:29;;;;;;;9.77;7.50;;;;;;;;;;680046;29;1693;-65
2023/10/20 00:35:49;;;;;;;9.57;7.55;;;;;;;;;;679877;29;956;-64
2023/10/20 00:36:10;;;;;;;9.23;7.40;;;;;;;;;;679847;29;1871;-65
2023/10/20 00:36:30;;;;;;;10.15;7.18;;;;;;;;;;680087;29;1795;-65
2023/10/20 00:36:51;;;;;;;10.40;7.37;;;;;;;;;;682007;29;4433;-64
2023/10/20 00:37:11;;;;;;;10.88;7.35;;;;;;;;;;682539;29;1143;-64
2023/10/20 00:37:31;;;;;;;9.80;7.50;;;;;;;;;;680684;28;2209;-65
2023/10/20 00:37:52;;;;;;;9.53;7.67;;;;;;;;;;684906;28;977;-65
2023/10/20 00:38:12;;;;;;;10.07;7.33;;;;;;;;;;687092;28;940;-65
2023/10/20 00:38:32;;;;;;;10.00;7.57;;;;;;;;;;682807;28;2468;-66
2023/10/20 00:38:52;;;;;;;9.73;7.40;;;;;;;;;;683621;28;1143;-68
2023/10/20 00:39:13;;;;;;;9.77;7.10;;;;;;;;;;685066;28;904;-68
2023/10/20 00:39:34;;;;;;;9.80;7.33;;;;;;;;;;683313;28;1961;-65
2023/10/20 00:39:55;;;;;;;9.32;7.10;;;;;;;;;;683965;28;4368;-65
2023/10/20 00:40:15;;;;;;;9.77;7.33;;;;;;;;;;684946;28;1018;-64
2023/10/20 00:40:36;;;;;;;10.83;7.50;;;;;;;;;;683535;28;1916;-66
2023/10/20 00:40:56;;;;;;;11.93;7.45;;;;;;;;;;681928;29;1319;-64
2023/10/20 00:41:16;;;;;;;10.23;7.63;;;;;;;;;;682923;28;893;-64
2023/10/20 00:41:37;;;;;;;9.57;7.50;;;;;;;;;;683502;28;2336;-63
2023/10/20 00:41:57;;;;;;;9.17;7.13;;;;;;;;;;684431;28;2510;-64
2023/10/20 00:42:18;;;;;;;9.23;7.30;;;;;;;;;;684695;28;917;-63
2023/10/20 00:42:38;;;;;;;10.07;7.30;;;;;;;;;;683503;28;2441;-63
2023/10/20 00:43:00;;;;;;;10.03;7.40;;;;;;;;;;684247;28;4640;-64
2023/10/20 00:43:20;;;;;;;9.15;7.60;;;;;;;;;;684890;28;1973;-64
2023/10/20 00:43:41;;;;;;;10.10;7.60;;;;;;;;;;683142;28;2650;-65
2023/10/20 00:44:01;;;;;;;10.10;7.37;;;;;;;;;;682515;28;1320;-64
2023/10/20 00:44:22;;;;;;;9.38;7.22;;;;;;;;;;684901;28;912;-64
2023/10/20 00:44:43;;;;;;;10.15;7.65;;;;;;;;;;683461;28;2413;-64
2023/10/20 00:45:04;;;;;;;9.67;7.70;;;;;;;;;;684449;28;1395;-65
2023/10/20 00:45:24;;;;;;;9.38;7.53;;;;;;;;;;683603;28;2389;-67
2023/10/20 00:45:45;;;;;;;9.23;7.27;;;;;;;;;;682157;28;4378;-65
2023/10/20 00:46:07;;;;;;;9.55;7.63;;;;;;;;;;681817;29;949;-65
2023/10/20 00:46:27;;;;;;;9.23;7.13;;;;;;;;;;680561;29;2380;-64
2023/10/20 00:46:49;;;;;;;9.25;7.40;;;;;;;;;;679660;29;1409;-65
2023/10/20 00:47:09;;;;;;;8.75;7.13;;;;;;;;;;680187;29;988;-66
2023/10/20 00:47:30;;;;;;;10.27;7.27;;;;;;;;;;681337;28;2422;-65
2023/10/20 00:47:51;;;;;;;9.70;7.28;;;;;;;;;;684142;28;1237;-65
2023/10/20 00:48:11;;;;;;;9.27;7.30;;;;;;;;;;682639;28;991;-65
2023/10/20 00:48:32;;;;;;;10.13;7.47;;;;;;;;;;681711;28;1828;-66
2023/10/20 00:48:53;;;;;;;10.93;7.45;;;;;;;;;;685579;28;4507;-65
2023/10/20 00:49:14;;;;;;;10.60;7.27;;;;;;;;;;682555;28;1313;-65
2023/10/20 00:49:36;;;;;;;11.20;7.40;;;;;;;;;;682058;28;1871;-66
2023/10/20 00:49:57;;;;;;;9.70;7.10;;;;;;;;;;682941;28;1186;-65
2023/10/20 00:50:18;;;;;;;8.50;7.00;;;;;;;;;;682043;28;1347;-65
2023/10/20 00:50:39;;;;;;;8.80;7.30;;;;;;;;;;677879;29;1825;-65
2023/10/20 00:51:00;;;;;;;10.07;7.18;;;;;;;;;;680597;29;940;-65
2023/10/20 00:51:21;;;;;;;9.25;6.70;;;;;;;;;;682259;28;913;-64
2023/10/20 00:51:41;;;;;;;9.63;6.73;;;;;;;;;;677585;29;4536;-65
2023/10/20 00:52:02;;;;;;;8.73;6.70;;;;;;;;;;680133;29;807;-64
2023/10/20 00:52:23;;;;;;;8.48;6.85;;;;;;;;;;682507;28;984;-63
2023/10/20 00:52:45;;;;;;;8.63;6.90;;;;;;;;;;680685;29;1326;-64
2023/10/20 00:53:07;;;;;;;9.07;6.80;;;;;;;;;;679547;29;1058;-63
2023/10/20 00:53:28;;;;;;;9.15;6.90;;;;;;;;;;678036;29;1021;-64
2023/10/20 00:53:48;;;;;;;9.23;6.93;;;;;;;;;;679504;29;1390;-66
2023/10/20 00:54:13;;;;;;;9.70;7.43;;;;;;;;;;679909;29;875;-65
2023/10/20 00:54:33;;;;;;;9.40;7.28;;;;;;;;;;677258;29;48232;-64
2023/10/20 00:54:54;;;;;;;9.07;7.20;;;;;;;;;;681470;29;4423;-63
2023/10/20 00:55:14;;;;;;;9.73;7.38;;;;;;;;;;681775;29;1258;-64
2023/10/20 00:55:35;;;;;;;10.30;7.80;;;;;;;;;;681689;28;1030;-68
2023/10/20 00:55:56;;;;;;;10.45;7.72;;;;;;;;;;684806;28;897;-64
2023/10/20 00:56:17;;;;;;;10.25;7.30;;;;;;;;;;682437;28;956;-64
2023/10/20 00:56:37;;;;;;;10.35;7.35;;;;;;;;;;681278;28;1235;-63
2023/10/20 00:56:57;;;;;;;10.17;7.40;;;;;;;;;;684514;28;1314;-64
2023/10/20 00:57:18;;;;;;;9.80;7.20;;;;;;;;;;682327;28;917;-64
2023/10/20 00:57:38;;;;;;;9.80;7.20;;;;;;;;;;679485;29;1399;-64
2023/10/20 00:57:59;;;;;;;10.77;7.25;;;;;;;;;;681424;28;4470;-64
2023/10/20 00:58:19;;;;;;;9.87;6.77;;;;;;;;;;684843;28;818;-64
2023/10/20 00:58:40;;;;;;;8.50;6.50;;;;;;;;;;682496;28;1643;-65
2023/10/20 00:59:00;;;;;;;9.10;7.17;;;;;;;;;;683558;28;852;-67
2023/10/20 00:59:20;;;;;;;8.67;6.83;;;;;;;;;;684428;28;960;-65
2023/10/20 00:59:41;;;;;;;8.57;6.80;;;;;;;;;;682755;28;983;-64
2023/10/20 01:00:03;;;;;;;9.00;6.77;;;;;;;;;;681950;29;892;-64
2023/10/20 01:00:24;;;;;;;8.90;6.65;;;;;;;;;;681786;29;1000;-64
2023/10/20 01:00:44;;;;;;;8.50;6.70;;;;;;;;;;680213;29;4609;-64
2023/10/20 01:01:04;;;;;;;8.37;6.90;;;;;;;;;;681886;29;840;-66
2023/10/20 01:01:24;;;;;;;9.32;6.82;;;;;;;;;;682143;29;1023;-64
2023/10/20 01:01:45;;;;;;;10.00;6.83;;;;;;;;;;678634;28;2113;-66
2023/10/20 01:02:05;;;;;;;8.47;6.40;;;;;;;;;;681932;29;1423;-65
2023/10/20 01:02:29;;;;;;;8.45;6.22;;;;;;;;;;681424;28;1090;-66
2023/10/20 01:02:51;;;;;;;9.77;6.78;;;;;;;;;;684050;28;22974;-64
2023/10/20 01:03:12;;;;;;;8.48;6.55;;;;;;;;;;681678;29;1910;-66
2023/10/20 01:03:33;;;;;;;8.43;7.10;;;;;;;;;;680981;28;941;-65
2023/10/20 01:03:53;;;;;;;8.82;6.93;;;;;;;;;;682616;28;4541;-66
2023/10/20 01:04:14;;;;;;;9.23;7.10;;;;;;;;;;681740;29;1316;-66
2023/10/20 01:04:34;;;;;;;9.30;7.20;;;;;;;;;;679804;29;1010;-65
2023/10/20 01:04:55;;;;;;;9.03;6.70;;;;;;;;;;682052;28;960;-65
2023/10/20 01:05:15;;;;;;;9.82;6.78;;;;;;;;;;684704;28;1389;-67
2023/10/20 01:05:35;;;;;;;8.63;6.70;;;;;;;;;;683616;28;1238;-65
2023/10/20 01:05:56;;;;;;;8.50;6.83;;;;;;;;;;684074;28;782;-65
2023/10/20 01:06:17;;;;;;;8.23;6.72;;;;;;;;;;682300;29;1489;-65
2023/10/20 01:06:37;;;;;;;9.43;6.90;;;;;;;;;;681275;29;1291;-64
2023/10/20 01:06:57;;;;;;;9.80;7.50;;;;;;;;;;681608;29;4474;-65
2023/10/20 01:07:17;;;;;;;8.67;6.63;;;;;;;;;;681833;28;885;-65
2023/10/20 01:07:38;;;;;;;9.13;6.50;;;;;;;;;;678379;29;1707;-64
2023/10/20 01:07:58;;;;;;;9.27;6.33;;;;;;;;;;679673;28;1139;-65
2023/10/20 01:08:19;;;;;;;7.88;6.18;;;;;;;;;;679543;29;877;-63
2023/10/20 01:08:40;;;;;;;8.50;6.67;;;;;;;;;;677991;29;1262;-64
2023/10/20 01:09:00;;;;;;;8.53;6.43;;;;;;;;;;679058;29;954;-65
2023/10/20 01:09:26;;;;;;;9.10;6.67;;;;;;;;;;679353;28;885;-64
2023/10/20 01:09:46;;;;;;;9.73;6.70;;;;;;;;;;680580;28;69882;-64
2023/10/20 01:10:09;;;;;;;10.02;6.70;;;;;;;;;;687763;28;963;-65
2023/10/20 01:10:29;;;;;;;8.43;6.32;;;;;;;;;;686244;28;1166;-66
2023/10/20 01:10:52;;;;;;;8.35;6.47;;;;;;;;;;687940;28;1023;-64
2023/10/20 01:11:12;;;;;;;9.55;7.00;;;;;;;;;;687515;28;1023;-65
2023/10/20 01:11:32;;;;;;;8.82;6.93;;;;;;;;;;683124;28;1808;-65
2023/10/20 01:11:53;;;;;;;8.67;6.70;;;;;;;;;;685006;28;948;-65
2023/10/20 01:12:13;;;;;;;8.45;6.68;;;;;;;;;;682361;28;1501;-64
2023/10/20 01:12:34;;;;;;;8.40;6.57;;;;;;;;;;680170;29;3988;-66
2023/10/20 01:12:54;;;;;;;8.90;6.80;;;;;;;;;;681800;28;4692;-65
2023/10/20 01:13:15;;;;;;;8.60;6.67;;;;;;;;;;682505;28;926;-66
2023/10/20 01:13:36;;;;;;;8.00;6.40;;;;;;;;;;683047;28;1161;-65
2023/10/20 01:13:56;;;;;;;8.50;6.40;;;;;;;;;;685073;28;1248;-66
2023/10/20 01:14:16;;;;;;;8.60;6.50;;;;;;;;;;687774;28;854;-65
2023/10/20 01:14:37;;;;;;;8.70;6.73;;;;;;;;;;686241;28;2108;-65
2023/10/20 01:14:59;;;;;;;8.85;6.50;;;;;;;;;;684912;28;857;-65
2023/10/20 01:15:19;;;;;;;8.38;6.63;;;;;;;;;;684589;28;1073;-64
2023/10/20 01:15:41;;;;;;;8.53;6.53;;;;;;;;;;682389;28;4735;-65
2023/10/20 01:16:02;;;;;;;8.73;6.32;;;;;;;;;;685041;28;1458;-66
2023/10/20 01:16:23;;;;;;;8.98;6.88;;;;;;;;;;682093;29;2162;-65
2023/10/20 01:16:43;;;;;;;8.47;6.90;;;;;;;;;;680443;29;2289;-65
2023/10/20 01:17:04;;;;;;;8.90;6.93;;;;;;;;;;682277;29;1655;-64
2023/10/20 01:17:25;;;;;;;8.67;6.60;;;;;;;;;;682435;29;1426;-65
2023/10/20 01:17:45;;;;;;;8.20;6.38;;;;;;;;;;680209;29;1889;-65
2023/10/20 01:18:07;;;;;;;8.47;6.70;;;;;;;;;;683807;28;891;-65
2023/10/20 01:18:27;;;;;;;8.68;6.47;;;;;;;;;;685725;28;1052;-67
2023/10/20 01:18:47;;;;;;;8.20;6.37;;;;;;;;;;684524;28;4792;-64
2023/10/20 01:19:08;;;;;;;8.45;6.72;;;;;;;;;;687519;28;978;-64
2023/10/20 01:19:28;;;;;;;8.40;6.30;;;;;;;;;;683340;28;1887;-65
2023/10/20 01:19:48;;;;;;;7.77;6.13;;;;;;;;;;684266;28;842;-65
2023/10/20 01:20:09;;;;;;;8.10;6.00;;;;;;;;;;685084;28;1065;-64
2023/10/20 01:20:29;;;;;;;8.97;6.20;;;;;;;;;;680988;29;2024;-65
2023/10/20 01:20:50;;;;;;;8.48;6.10;;;;;;;;;;679152;29;1432;-64
2023/10/20 01:21:10;;;;;;;9.17;6.33;;;;;;;;;;679523;29;857;-65
2023/10/20 01:21:30;;;;;;;9.10;6.50;;;;;;;;;;679724;28;1300;-65
2023/10/20 01:21:50;;;;;;;9.13;6.40;;;;;;;;;;679277;29;4376;-63
2023/10/20 01:22:11;;;;;;;9.00;6.37;;;;;;;;;;680318;29;893;-65
2023/10/20 01:22:31;;;;;;;8.10;6.23;;;;;;;;;;679377;28;1287;-64
2023/10/20 01:22:51;;;;;;;8.82;6.50;;;;;;;;;;682856;28;893;-65
2023/10/20 01:23:12;;;;;;;8.73;6.43;;;;;;;;;;684850;28;1911;-64
2023/10/20 01:23:33;;;;;;;8.90;6.45;;;;;;;;;;682953;28;1595;-65
2023/10/20 01:23:54;;;;;;;8.30;6.07;;;;;;;;;;681080;29;1189;-64
2023/10/20 01:24:14;;;;;;;8.15;5.93;;;;;;;;;;679877;29;2079;-64
2023/10/20 01:24:34;;;;;;;8.07;6.27;;;;;;;;;;680489;29;1479;-65
2023/10/20 01:24:55;;;;;;;7.80;6.23;;;;;;;;;;678970;29;4635;-64
2023/10/20 01:25:15;;;;;;;7.95;6.47;;;;;;;;;;679374;29;973;-65
2023/10/20 01:25:36;;;;;;;7.70;6.37;;;;;;;;;;678702;29;1872;-63
2023/10/20 01:25:56;;;;;;;8.55;6.57;;;;;;;;;;682016;28;926;-67
2023/10/20 01:26:17;;;;;;;9.43;6.40;;;;;;;;;;684910;28;937;-64
2023/10/20 01:26:38;;;;;;;9.60;6.70;;;;;;;;;;683722;28;2452;-64
2023/10/20 01:26:59;;;;;;;8.48;6.57;;;;;;;;;;687611;28;910;-65
2023/10/20 01:27:19;;;;;;;8.83;6.13;;;;;;;;;;684998;28;952;-64
2023/10/20 01:27:39;;;;;;;8.90;6.20;;;;;;;;;;683585;28;1364;-64
2023/10/20 01:27:59;;;;;;;7.70;6.17;;;;;;;;;;681145;29;7391;-64
2023/10/20 01:28:20;;;;;;;7.07;5.73;;;;;;;;;;682102;28;1204;-64
2023/10/20 01:28:40;;;;;;;7.43;6.30;;;;;;;;;;680958;29;2588;-64
2023/10/20 01:29:05;;;;;;;8.13;6.23;;;;;;;;;;681909;29;908;-64
2023/10/20 01:29:25;;;;;;;8.48;6.53;;;;;;;;;;680607;29;22801;-63
2023/10/20 01:29:46;;;;;;;7.97;6.38;;;;;;;;;;678909;29;1792;-64
2023/10/20 01:30:06;;;;;;;8.10;6.20;;;;;;;;;;682621;28;913;-64
2023/10/20 01:30:28;;;;;;;8.18;5.90;;;;;;;;;;684650;28;900;-64
2023/10/20 01:30:49;;;;;;;7.95;5.75;;;;;;;;;;683508;28;4411;-65
2023/10/20 01:31:09;;;;;;;7.83;5.97;;;;;;;;;;685312;28;904;-65
2023/10/20 01:31:29;;;;;;;8.30;6.00;;;;;;;;;;686375;28;2877;-63
2023/10/20 01:31:49;;;;;;;7.95;6.15;;;;;;;;;;687836;28;905;-63
2023/10/20 01:32:11;;;;;;;8.03;6.27;;;;;;;;;;687353;28;929;-65
2023/10/20 01:32:31;;;;;;;7.72;6.00;;;;;;;;;;685272;28;1981;-64
2023/10/20 01:32:52;;;;;;;8.65;6.05;;;;;;;;;;685016;28;1347;-63
2023/10/20 01:33:12;;;;;;;9.20;6.07;;;;;;;;;;684948;28;1268;-63
2023/10/20 01:33:33;;;;;;;8.50;6.10;;;;;;;;;;680353;28;2843;-64
2023/10/20 01:33:53;;;;;;;7.75;5.95;;;;;;;;;;681828;29;4388;-65
2023/10/20 01:34:13;;;;;;;9.17;6.03;;;;;;;;;;682035;29;1301;-65
2023/10/20 01:34:35;;;;;;;8.03;6.10;;;;;;;;;;678383;29;1359;-65
2023/10/20 01:34:55;;;;;;;7.88;6.30;;;;;;;;;;679092;29;1543;-64
2023/10/20 01:35:15;;;;;;;8.40;6.30;;;;;;;;;;679500;29;853;-65
2023/10/20 01:35:36;;;;;;;8.63;6.10;;;;;;;;;;677952;29;1807;-64
2023/10/20 01:35:56;;;;;;;7.90;6.20;;;;;;;;;;680038;29;1122;-65
2023/10/20 01:36:16;;;;;;;7.73;5.93;;;;;;;;;;679311;29;1510;-64
2023/10/20 01:36:39;;;;;;;7.43;5.57;;;;;;;;;;677808;29;1758;-64
2023/10/20 01:36:59;;;;;;;7.68;5.72;;;;;;;;;;679138;29;4662;-64
2023/10/20 01:37:20;;;;;;;8.32;6.30;;;;;;;;;;679890;29;1432;-64
2023/10/20 01:37:40;;;;;;;8.43;6.53;;;;;;;;;;677714;29;1035;-64
2023/10/20 01:38:01;;;;;;;8.15;6.20;;;;;;;;;;679762;29;2840;-64
2023/10/20 01:38:21;;;;;;;7.60;5.90;;;;;;;;;;682695;28;853;-64
2023/10/20 01:38:41;;;;;;;7.70;6.00;;;;;;;;;;682674;28;2564;-65
2023/10/20 01:39:02;;;;;;;8.55;6.78;;;;;;;;;;683998;28;5684;-64
2023/10/20 01:39:22;;;;;;;8.60;6.55;;;;;;;;;;683956;28;833;-64
2023/10/20 01:39:43;;;;;;;8.37;6.30;;;;;;;;;;679934;28;4746;-64
2023/10/20 01:40:04;;;;;;;7.70;5.90;;;;;;;;;;681989;29;1206;-65
2023/10/20 01:40:27;;;;;;;8.20;6.38;;;;;;;;;;682225;29;1229;-65
2023/10/20 01:40:47;;;;;;;8.00;6.43;;;;;;;;;;679656;28;25135;-64
2023/10/20 01:41:08;;;;;;;8.40;6.22;;;;;;;;;;682023;29;840;-64
2023/10/20 01:41:28;;;;;;;7.43;5.50;;;;;;;;;;683002;28;1532;-65
2023/10/20 01:41:49;;;;;;;7.93;6.03;;;;;;;;;;684485;28;951;-64
2023/10/20 01:42:09;;;;;;;8.27;6.07;;;;;;;;;;686995;28;888;-66
2023/10/20 01:42:29;;;;;;;8.43;6.07;;;;;;;;;;683527;28;2537;-65
2023/10/20 01:42:50;;;;;;;7.87;5.60;;;;;;;;;;683714;28;4652;-64
2023/10/20 01:43:12;;;;;;;7.60;5.72;;;;;;;;;;684679;28;1941;-65
2023/10/20 01:43:33;;;;;;;7.72;5.65;;;;;;;;;;680854;29;2546;-64
2023/10/20 01:43:54;;;;;;;7.83;5.60;;;;;;;;;;681886;29;928;-66
2023/10/20 01:44:14;;;;;;;8.10;5.68;;;;;;;;;;682651;28;1329;-65
2023/10/20 01:44:34;;;;;;;7.43;5.60;;;;;;;;;;679807;29;2428;-65
2023/10/20 01:44:55;;;;;;;8.77;6.00;;;;;;;;;;677990;29;1301;-65
2023/10/20 01:45:15;;;;;;;8.23;5.93;;;;;;;;;;676885;29;1243;-67
2023/10/20 01:45:35;;;;;;;7.30;5.70;;;;;;;;;;677378;29;2422;-65
2023/10/20 01:45:56;;;;;;;7.57;5.40;;;;;;;;;;677970;29;4655;-67
2023/10/20 01:46:16;;;;;;;7.47;5.13;;;;;;;;;;677177;29;1301;-65
2023/10/20 01:46:37;;;;;;;6.72;5.40;;;;;;;;;;677382;29;2493;-66
2023/10/20 01:46:58;;;;;;;7.13;5.57;;;;;;;;;;681649;28;898;-66
2023/10/20 01:47:19;;;;;;;7.38;5.80;;;;;;;;;;682058;29;1592;-65
2023/10/20 01:47:40;;;;;;;7.20;5.70;;;;;;;;;;678237;29;2586;-64
2023/10/20 01:48:00;;;;;;;7.22;5.63;;;;;;;;;;679867;29;896;-66
2023/10/20 01:48:20;;;;;;;7.77;5.60;;;;;;;;;;682024;29;1218;-65
2023/10/20 01:48:41;;;;;;;7.88;5.88;;;;;;;;;;680215;29;4422;-64
2023/10/20 01:49:01;;;;;;;6.73;5.63;;;;;;;;;;681563;29;767;-66
2023/10/20 01:49:21;;;;;;;7.10;5.57;;;;;;;;;;681527;28;787;-65
2023/10/20 01:49:41;;;;;;;7.00;5.40;;;;;;;;;;681016;28;1364;-65
2023/10/20 01:50:02;;;;;;;7.23;5.40;;;;;;;;;;681984;29;1513;-64
2023/10/20 01:50:23;;;;;;;8.40;5.87;;;;;;;;;;678727;29;1164;-65
2023/10/20 01:50:43;;;;;;;7.72;5.53;;;;;;;;;;678101;29;1933;-65
2023/10/20 01:51:04;;;;;;;6.78;5.13;;;;;;;;;;679425;29;973;-64
2023/10/20 01:51:24;;;;;;;6.83;5.37;;;;;;;;;;679327;29;871;-64
2023/10/20 01:51:45;;;;;;;7.47;5.65;;;;;;;;;;677740;29;4568;-64
2023/10/20 01:52:05;;;;;;;7.07;5.00;;;;;;;;;;682521;28;932;-64
2023/10/20 01:52:26;;;;;;;7.05;4.68;;;;;;;;;;682164;28;1358;-64
2023/10/20 01:52:46;;;;;;;6.70;5.13;;;;;;;;;;683298;28;1483;-64
2023/10/20 01:53:06;;;;;;;7.17;5.20;;;;;;;;;;684455;28;941;-64
2023/10/20 01:53:28;;;;;;;6.97;5.07;;;;;;;;;;684326;28;1249;-64
2023/10/20 01:53:48;;;;;;;6.70;5.22;;;;;;;;;;683042;28;1943;-63
2023/10/20 01:54:08;;;;;;;6.83;5.40;;;;;;;;;;684817;28;1615;-63
2023/10/20 01:54:29;;;;;;;6.80;5.37;;;;;;;;;;684444;28;896;-64
2023/10/20 01:54:49;;;;;;;7.28;5.25;;;;;;;;;;680359;29;4606;-63
2023/10/20 01:55:09;;;;;;;6.83;5.10;;;;;;;;;;681959;29;1208;-63
2023/10/20 01:55:30;;;;;;;6.83;5.00;;;;;;;;;;681889;29;929;-64
2023/10/20 01:55:50;;;;;;;6.35;4.80;;;;;;;;;;679277;29;1857;-63
2023/10/20 01:56:10;;;;;;;7.07;5.00;;;;;;;;;;682016;29;1314;-63
2023/10/20 01:56:30;;;;;;;7.10;5.20;;;;;;;;;;679892;28;1802;-64
2023/10/20 01:56:51;;;;;;;7.00;4.90;;;;;;;;;;681827;29;1246;-63
2023/10/20 01:57:11;;;;;;;6.27;4.70;;;;;;;;;;679343;29;783;-65
2023/10/20 01:57:31;;;;;;;6.60;5.07;;;;;;;;;;677101;29;1376;-65
2023/10/20 01:57:52;;;;;;;6.40;4.90;;;;;;;;;;678116;29;4688;-65
2023/10/20 01:58:12;;;;;;;6.73;4.73;;;;;;;;;;679417;29;1301;-64
2023/10/20 01:58:34;;;;;;;6.57;4.85;;;;;;;;;;676797;29;2000;-64
2023/10/20 01:58:54;;;;;;;6.27;4.73;;;;;;;;;;679233;29;1208;-64
2023/10/20 01:59:15;;;;;;;6.35;4.93;;;;;;;;;;678996;29;1241;-63
2023/10/20 01:59:35;;;;;;;6.73;5.00;;;;;;;;;;675676;29;2335;-64
2023/10/20 01:59:56;;;;;;;7.13;4.85;;;;;;;;;;679385;29;1317;-64
2023/10/20 02:00:16;;;;;;;7.27;4.80;;;;;;;;;;680114;29;1262;-64
2023/10/20 02:00:37;;;;;;;6.70;4.72;;;;;;;;;;678271;29;2333;-63
2023/10/20 02:00:58;;;;;;;5.70;4.40;;;;;;;;;;679318;29;4341;-65
2023/10/20 02:01:21;;;;;;;5.70;4.30;;;;;;;;;;679308;29;1004;-64
2023/10/20 02:01:42;;;;;;;6.63;4.57;;;;;;;;;;677112;29;1760;-64
2023/10/20 02:02:03;;;;;;;6.45;4.78;;;;;;;;;;682746;28;993;-63
2023/10/20 02:02:24;;;;;;;6.43;4.50;;;;;;;;;;680375;28;1387;-63
2023/10/20 02:02:44;;;;;;;6.90;4.70;;;;;;;;;;680464;28;1994;-64
2023/10/20 02:03:05;;;;;;;6.13;4.70;;;;;;;;;;679022;29;866;-63
2023/10/20 02:03:25;;;;;;;6.85;4.78;;;;;;;;;;679352;29;2065;-64
2023/10/20 02:03:47;;;;;;;6.73;4.83;;;;;;;;;;674924;29;4528;-69
2023/10/20 02:04:07;;;;;;;6.07;4.38;;;;;;;;;;676518;29;1426;-63
2023/10/20 02:04:28;;;;;;;7.23;4.73;;;;;;;;;;677451;29;829;-64
2023/10/20 02:04:49;;;;;;;6.28;4.60;;;;;;;;;;678816;29;1539;-63
2023/10/20 02:05:09;;;;;;;6.13;4.30;;;;;;;;;;682370;28;921;-64
2023/10/20 02:05:29;;;;;;;7.27;4.77;;;;;;;;;;681512;29;1321;-64
2023/10/20 02:05:50;;;;;;;6.95;4.72;;;;;;;;;;681273;28;1639;-66
2023/10/20 02:06:10;;;;;;;7.27;4.90;;;;;;;;;;684685;28;959;-65
2023/10/20 02:06:30;;;;;;;6.50;4.70;;;;;;;;;;682288;29;988;-64
2023/10/20 02:06:51;;;;;;;6.70;4.63;;;;;;;;;;681285;29;4505;-65
2023/10/20 02:07:12;;;;;;;6.00;4.43;;;;;;;;;;681779;28;1240;-65
2023/10/20 02:07:33;;;;;;;6.72;4.47;;;;;;;;;;680966;29;1078;-65
2023/10/20 02:07:54;;;;;;;6.88;4.65;;;;;;;;;;682606;28;1052;-65